Time;durP1;ratioP1;P1;durP2;ratioP2;P2;SDS_P1;SDS_P2;PMS_P1;PMS_P2;Temp;Humidity;BMP_temperature;BMP_pressure;BME280_temperature;BME280_humidity;BME280_pressure;Samples;Min_cycle;Max_cycle;Signal;HPM_P1;HPM_P2
2022/04/12 00:00:19;;;;;;;3.33;2.73;;;7.40;98.10;;;;;;5093939;28;20170;-52
2022/04/12 00:02:45;;;;;;;3.63;2.83;;;6.90;97.90;;;;;;5093553;28;20174;-51
2022/04/12 00:05:12;;;;;;;3.47;2.70;;;7.00;98.10;;;;;;5093874;28;20170;-53
2022/04/12 00:07:41;;;;;;;3.80;2.47;;;6.90;98.10;;;;;;5075570;28;20686;-51
2022/04/12 00:10:08;;;;;;;3.07;2.77;;;6.90;98.00;;;;;;5093669;28;20173;-55
2022/04/12 00:12:34;;;;;;;3.47;2.97;;;6.80;98.60;;;;;;5093379;28;20177;-51
2022/04/12 00:14:59;;;;;;;3.23;2.67;;;6.80;98.60;;;;;;5093661;28;20170;-51
2022/04/12 00:20:10;;;;;;;3.80;2.60;;;6.70;97.40;;;;;;5093581;28;20256;-52
2022/04/12 00:22:36;;;;;;;3.10;2.70;;;6.70;96.80;;;;;;5093088;28;20169;-51
2022/04/12 00:25:03;;;;;;;3.37;2.63;;;6.70;96.90;;;;;;5093404;28;20226;-53
2022/04/12 00:27:28;;;;;;;3.27;2.90;;;6.80;99.20;;;;;;5093213;28;20205;-51
2022/04/12 00:29:54;;;;;;;3.13;2.67;;;6.70;98.80;;;;;;5093301;28;20173;-52
2022/04/12 00:32:20;;;;;;;2.63;2.43;;;6.70;99.50;;;;;;5092945;28;20173;-53
2022/04/12 00:34:46;;;;;;;2.80;2.60;;;;;;;;;;5093563;28;20174;-52
2022/04/12 00:37:12;;;;;;;4.53;2.93;;;;;;;;;;5093085;28;20694;-53
2022/04/12 00:39:38;;;;;;;2.60;2.40;;;6.70;99.60;;;;;;5092853;28;20543;-52
2022/04/12 00:42:06;;;;;;;4.43;2.83;;;6.60;99.80;;;;;;5092347;28;20661;-51
2022/04/12 00:44:32;;;;;;;3.70;2.63;;;6.60;99.90;;;;;;5092800;28;20177;-52
2022/04/12 00:46:58;;;;;;;3.60;2.80;;;6.50;99.80;;;;;;5092830;28;20573;-52
2022/04/12 00:49:23;;;;;;;3.10;2.80;;;6.40;99.70;;;;;;5092958;28;20176;-52
2022/04/12 00:51:49;;;;;;;2.60;2.40;;;6.40;96.90;;;;;;5092592;28;20166;-55
2022/04/12 00:54:19;;;;;;;3.13;2.70;;;6.30;97.30;;;;;;5092538;28;20211;-54
2022/04/12 00:56:48;;;;;;;3.77;2.80;;;6.20;99.90;;;;;;5092663;28;20189;-51
2022/04/12 00:59:14;;;;;;;4.43;2.77;;;;;;;;;;5092843;28;20248;-52
2022/04/12 01:01:40;;;;;;;2.80;2.50;;;;;;;;;;5092652;28;20272;-52
2022/04/12 01:04:06;;;;;;;2.83;2.50;;;;;;;;;;5092422;28;20177;-53
2022/04/12 01:06:31;;;;;;;6.33;2.90;;;6.10;99.90;;;;;;5092317;28;20205;-51
2022/04/12 01:08:57;;;;;;;3.20;2.70;;;6.10;99.90;;;;;;5092616;28;20534;-52
2022/04/12 01:11:25;;;;;;;2.80;2.50;;;6.00;99.90;;;;;;5092465;28;20201;-51
2022/04/12 01:13:51;;;;;;;3.10;2.37;;;6.00;99.90;;;;;;5092226;28;20218;-55
2022/04/12 01:16:18;;;;;;;3.30;3.00;;;;;;;;;;5092290;28;20189;-53
2022/04/12 01:18:44;;;;;;;3.73;3.37;;;6.70;99.90;;;;;;5092582;28;20166;-55
2022/04/12 01:21:10;;;;;;;4.70;3.40;;;6.20;99.90;;;;;;5092354;28;20177;-55
2022/04/12 01:23:57;;;;;;;3.67;3.20;;;6.10;99.40;;;;;;5091863;28;20262;-52
2022/04/12 01:26:23;;;;;;;5.03;3.10;;;6.10;99.90;;;;;;5092185;28;20686;-52
2022/04/12 01:28:48;;;;;;;3.20;2.77;;;6.00;99.90;;;;;;5074181;28;20287;-51
2022/04/12 01:31:14;;;;;;;3.47;2.87;;;5.90;99.90;;;;;;5092247;28;20172;-51
2022/04/12 01:33:39;;;;;;;3.27;2.97;;;6.00;99.90;;;;;;5091746;28;20174;-51
2022/04/12 01:36:05;;;;;;;3.67;3.10;;;6.00;99.90;;;;;;5092158;28;20166;-50
2022/04/12 01:38:30;;;;;;;4.03;3.47;;;5.90;99.90;;;;;;5092018;28;20248;-54
2022/04/12 01:40:56;;;;;;;3.97;3.57;;;6.10;99.90;;;;;;5092221;28;20200;-50
2022/04/12 01:43:21;;;;;;;3.10;2.80;;;6.00;99.90;;;;;;5091654;28;20197;-52
2022/04/12 01:45:47;;;;;;;4.17;3.10;;;6.20;99.90;;;;;;5092036;28;20204;-50
2022/04/12 01:48:13;;;;;;;2.63;2.43;;;;;;;;;;5091853;28;20189;-57
2022/04/12 01:50:38;;;;;;;2.90;2.70;;;6.00;99.90;;;;;;5092017;28;20200;-53
2022/04/12 01:53:05;;;;;;;3.57;2.70;;;;;;;;;;5091323;28;20173;-55
2022/04/12 01:55:30;;;;;;;3.07;2.77;;;6.00;99.90;;;;;;5092093;28;20170;-51
2022/04/12 01:57:56;;;;;;;3.30;2.90;;;6.00;99.90;;;;;;5092000;28;20191;-52
2022/04/12 02:00:22;;;;;;;3.97;2.97;;;;;;;;;;5091954;28;20174;-53
2022/04/12 02:02:47;;;;;;;4.07;2.90;;;5.90;99.90;;;;;;5091496;28;20581;-51
2022/04/12 02:05:13;;;;;;;3.40;3.00;;;5.90;99.90;;;;;;5091880;28;20169;-51
2022/04/12 02:07:42;;;;;;;4.73;4.03;;;5.90;99.90;;;;;;5091684;28;20201;-51
2022/04/12 02:10:09;;;;;;;4.80;4.10;;;5.70;98.90;;;;;;5091720;28;20300;-56
2022/04/12 02:12:34;;;;;;;4.37;3.50;;;5.70;99.90;;;;;;5091392;28;20178;-54
2022/04/12 02:15:00;;;;;;;3.77;3.20;;;5.50;99.90;;;;;;5091658;28;20170;-53
2022/04/12 02:17:26;;;;;;;3.47;3.17;;;5.50;99.90;;;;;;5091655;28;20272;-55
2022/04/12 02:19:51;;;;;;;3.47;3.17;;;5.60;99.90;;;;;;5091618;28;20178;-54
2022/04/12 02:22:17;;;;;;;7.23;3.70;;;;;;;;;;5091403;28;20621;-54
2022/04/12 02:24:43;;;;;;;4.33;3.60;;;5.60;99.90;;;;;;5091593;28;20173;-57
2022/04/12 02:27:09;;;;;;;4.10;3.03;;;;;;;;;;5091541;28;20713;-51
2022/04/12 02:29:35;;;;;;;3.30;3.00;;;5.50;99.90;;;;;;5091842;28;20178;-57
2022/04/12 02:32:00;;;;;;;4.53;2.90;;;5.60;99.90;;;;;;5091423;28;20170;-54
2022/04/12 02:34:26;;;;;;;3.57;3.13;;;5.50;99.90;;;;;;5091544;28;20174;-55
2022/04/12 02:36:51;;;;;;;4.33;3.83;;;5.50;99.90;;;;;;5091358;28;20197;-54
2022/04/12 02:39:17;;;;;;;3.83;3.20;;;5.50;99.90;;;;;;5091626;28;20206;-52
2022/04/12 02:41:42;;;;;;;4.13;3.23;;;5.30;99.90;;;;;;5091292;28;20622;-56
2022/04/12 02:44:08;;;;;;;4.10;3.27;;;5.60;99.90;;;;;;5091298;28;20670;-52
2022/04/12 02:46:33;;;;;;;4.13;3.30;;;5.50;99.90;;;;;;5091137;28;20331;-54
2022/04/12 02:48:59;;;;;;;3.57;3.20;;;5.40;99.90;;;;;;5091506;28;20162;-55
2022/04/12 02:51:24;;;;;;;3.27;2.97;;;5.40;99.90;;;;;;5091419;28;20170;-57
2022/04/12 02:53:50;;;;;;;5.83;3.40;;;5.50;99.90;;;;;;5091495;28;20170;-56
2022/04/12 02:56:15;;;;;;;5.57;3.37;;;5.50;99.90;;;;;;5091292;28;20693;-54
2022/04/12 02:58:41;;;;;;;3.73;3.10;;;;;;;;;;5091384;28;20185;-54
2022/04/12 03:01:07;;;;;;;2.97;2.70;;;5.50;99.90;;;;;;5091398;28;20634;-56
2022/04/12 03:03:32;;;;;;;3.40;3.10;;;5.50;99.90;;;;;;5091394;28;20174;-57
2022/04/12 03:05:58;;;;;;;3.13;2.77;;;5.50;99.90;;;;;;5094862;28;20272;-55
2022/04/12 03:08:24;;;;;;;3.30;2.87;;;;;;;;;;5094840;28;20174;-56
2022/04/12 03:10:50;;;;;;;3.77;3.07;;;5.40;99.90;;;;;;5095058;28;20201;-55
2022/04/12 03:13:15;;;;;;;3.87;2.80;;;5.50;99.90;;;;;;5094410;28;20654;-53
2022/04/12 03:15:41;;;;;;;5.87;3.67;;;5.40;99.90;;;;;;5094752;28;20704;-52
2022/04/12 03:18:07;;;;;;;4.27;3.30;;;;;;;;;;5094633;28;20193;-57
2022/04/12 03:20:34;;;;;;;4.00;3.13;;;;;;;;;;5094687;28;20174;-55
2022/04/12 03:22:59;;;;;;;3.30;3.00;;;5.30;99.90;;;;;;5094233;28;20173;-54
2022/04/12 03:25:25;;;;;;;4.80;3.40;;;5.30;99.90;;;;;;5094551;28;20661;-56
2022/04/12 03:27:51;;;;;;;2.90;2.70;;;5.30;99.90;;;;;;5094254;28;20201;-54
2022/04/12 03:30:16;;;;;;;3.73;2.90;;;5.30;99.90;;;;;;5094475;28;20178;-52
2022/04/12 03:32:42;;;;;;;2.87;2.57;;;5.30;99.90;;;;;;5094379;28;20201;-55
2022/04/12 03:35:08;;;;;;;4.17;3.20;;;5.80;99.90;;;;;;5094301;28;20173;-53
2022/04/12 03:37:34;;;;;;;3.20;2.80;;;5.20;99.90;;;;;;5094284;28;20197;-54
2022/04/12 03:40:00;;;;;;;3.33;2.90;;;;;;;;;;5094279;28;20296;-54
2022/04/12 03:42:26;;;;;;;3.43;3.13;;;5.20;99.90;;;;;;5093913;28;20272;-51
2022/04/12 03:44:51;;;;;;;4.63;2.70;;;5.30;99.90;;;;;;5094186;28;20181;-56
2022/04/12 03:47:17;;;;;;;3.03;2.50;;;5.40;99.90;;;;;;5094003;28;20209;-54
2022/04/12 03:49:43;;;;;;;3.90;3.00;;;;;;;;;;5094135;28;20213;-54
2022/04/12 03:52:09;;;;;;;3.07;2.47;;;;;;;;;;5093902;28;20204;-55
2022/04/12 03:54:35;;;;;;;3.37;2.90;;;5.00;99.90;;;;;;5093964;28;20170;-55
2022/04/12 03:57:01;;;;;;;2.93;2.50;;;;;;;;;;5093972;28;20190;-55
2022/04/12 03:59:27;;;;;;;2.97;2.77;;;4.90;99.90;;;;;;5093900;28;20315;-54
2022/04/12 04:01:52;;;;;;;3.30;2.87;;;4.80;99.90;;;;;;5094013;28;20170;-53
2022/04/12 04:04:18;;;;;;;3.53;3.00;;;4.50;99.90;;;;;;5093744;28;20209;-56
2022/04/12 04:06:44;;;;;;;5.23;3.30;;;;;;;;;;5093631;28;20280;-52
2022/04/12 04:09:10;;;;;;;5.93;4.33;;;;;;;;;;5093795;28;20256;-55
2022/04/12 04:11:40;;;;;;;3.63;3.23;;;;;;;;;;5093705;28;20173;-52
2022/04/12 04:14:06;;;;;;;4.50;3.00;;;4.90;99.90;;;;;;5093370;28;20239;-51
2022/04/12 04:16:33;;;;;;;3.97;3.40;;;;;;;;;;5092448;28;20193;-56
2022/04/12 04:18:59;;;;;;;5.70;3.50;;;;;;;;;;5093650;28;20182;-53
2022/04/12 04:21:25;;;;;;;5.27;4.37;;;;;;;;;;5093581;28;20211;-54
2022/04/12 04:23:50;;;;;;;5.63;4.53;;;4.80;99.90;;;;;;5093295;28;20213;-52
2022/04/12 04:26:16;;;;;;;5.27;4.70;;;;;;;;;;5137306;22;20205;-47
2022/04/12 04:28:44;;;;;;;5.47;4.53;;;4.80;99.90;;;;;;5090979;28;20674;-51
2022/04/12 04:31:11;;;;;;;4.03;3.63;;;4.80;99.90;;;;;;5093504;28;20173;-51
2022/04/12 04:33:36;;;;;;;3.43;3.10;;;4.80;99.90;;;;;;5092962;28;20173;-51
2022/04/12 04:36:03;;;;;;;2.80;2.50;;;4.80;99.90;;;;;;5093255;28;20170;-52
2022/04/12 04:38:28;;;;;;;3.23;2.80;;;4.80;99.90;;;;;;5112597;28;20704;-51
2022/04/12 04:40:54;;;;;;;2.47;2.27;;;;;;;;;;5113432;28;20169;-53
2022/04/12 04:43:20;;;;;;;2.97;2.53;;;;;;;;;;5113133;28;20671;-54
2022/04/12 04:45:46;;;;;;;2.70;2.50;;;;;;;;;;5113399;28;20303;-51
2022/04/12 04:48:12;;;;;;;3.13;2.70;;;4.80;99.90;;;;;;5113300;28;20189;-53
2022/04/12 04:50:38;;;;;;;5.30;3.10;;;4.80;99.90;;;;;;5113323;28;20180;-53
2022/04/12 04:53:05;;;;;;;3.20;2.90;;;4.90;99.90;;;;;;5113043;28;20172;-53
2022/04/12 04:55:35;;;;;;;3.17;2.70;;;4.90;99.90;;;;;;5113171;28;20214;-52
2022/04/12 04:58:00;;;;;;;2.90;2.57;;;4.90;99.90;;;;;;5113166;28;20189;-52
2022/04/12 05:00:32;;;;;;;4.63;2.67;;;5.10;99.90;;;;;;5112823;28;20167;-52
2022/04/12 05:02:58;;;;;;;2.70;2.50;;;5.00;99.90;;;;;;5112040;28;20197;-49
2022/04/12 05:05:25;;;;;;;3.73;2.63;;;5.20;99.90;;;;;;5113023;28;20670;-51
2022/04/12 05:07:52;;;;;;;2.73;2.50;;;5.30;99.90;;;;;;5112690;28;20197;-51
2022/04/12 05:10:29;;;;;;;2.80;2.50;;;5.30;99.90;;;;;;5112979;28;20162;-54
2022/04/12 05:12:56;;;;;;;3.23;2.70;;;5.20;99.90;;;;;;5112515;28;20196;-52
2022/04/12 05:15:22;;;;;;;4.40;2.80;;;;;;;;;;5110872;28;20212;-56
2022/04/12 05:17:50;;;;;;;2.87;2.60;;;5.40;99.90;;;;;;5110568;28;20184;-53
2022/04/12 05:20:16;;;;;;;3.47;2.57;;;5.50;99.90;;;;;;5112489;28;20176;-54
2022/04/12 05:22:41;;;;;;;3.40;2.83;;;5.40;99.90;;;;;;5112174;28;20170;-51
2022/04/12 05:25:07;;;;;;;3.47;2.20;;;5.30;99.90;;;;;;5112762;28;20642;-54
2022/04/12 05:27:34;;;;;;;2.57;2.37;;;5.30;99.90;;;;;;5101297;28;20201;-55
2022/04/12 05:30:01;;;;;;;3.80;2.60;;;5.20;99.90;;;;;;5092657;28;20527;-55
2022/04/12 05:32:27;;;;;;;3.30;2.50;;;5.30;99.90;;;;;;5092059;28;20579;-53
2022/04/12 05:34:53;;;;;;;3.00;2.70;;;5.50;99.90;;;;;;5092144;28;20252;-52
2022/04/12 05:37:19;;;;;;;3.13;2.67;;;5.60;99.90;;;;;;5092037;28;20280;-52
2022/04/12 05:39:44;;;;;;;3.80;2.80;;;5.70;99.90;;;;;;5092107;28;20204;-51
2022/04/12 05:42:10;;;;;;;3.60;3.00;;;5.70;99.90;;;;;;5092067;28;20212;-51
2022/04/12 05:44:36;;;;;;;4.13;2.83;;;;;;;;;;5091992;28;20173;-53
2022/04/12 05:47:03;;;;;;;3.30;3.00;;;5.80;99.90;;;;;;5091886;28;20208;-52
2022/04/12 05:49:29;;;;;;;4.53;3.10;;;5.90;99.90;;;;;;5091903;28;20227;-51
2022/04/12 05:51:55;;;;;;;4.37;2.97;;;6.00;99.90;;;;;;5091868;28;20581;-52
2022/04/12 05:54:22;;;;;;;3.63;3.10;;;6.10;99.90;;;;;;5091736;28;20177;-52
2022/04/12 05:56:47;;;;;;;4.30;2.97;;;6.40;99.90;;;;;;5091936;28;20603;-53
2022/04/12 05:59:13;;;;;;;3.47;3.10;;;;;;;;;;5092026;28;20213;-54
2022/04/12 06:01:39;;;;;;;4.03;3.30;;;6.30;99.90;;;;;;5091771;28;20173;-55
2022/04/12 06:04:05;;;;;;;5.63;4.43;;;6.40;99.90;;;;;;5091601;28;20182;-52
2022/04/12 06:06:32;;;;;;;4.90;3.50;;;;;;;;;;5091680;28;20216;-56
2022/04/12 06:09:01;;;;;;;4.20;3.23;;;6.30;99.90;;;;;;5091791;28;20166;-53
2022/04/12 06:11:27;;;;;;;3.07;2.30;;;6.30;99.90;;;;;;5091777;28;20673;-53
2022/04/12 06:13:53;;;;;;;2.30;2.10;;;6.20;99.90;;;;;;5091471;28;20170;-51
2022/04/12 06:16:19;;;;;;;2.30;2.10;;;6.20;99.90;;;;;;5091716;28;20176;-53
2022/04/12 06:18:45;;;;;;;4.13;2.40;;;6.40;99.90;;;;;;5091707;28;20264;-53
2022/04/12 06:21:10;;;;;;;3.37;2.30;;;;;;;;;;5091859;28;20542;-52
2022/04/12 06:23:36;;;;;;;2.70;2.50;;;;;;;;;;5091366;28;20178;-55
2022/04/12 06:26:02;;;;;;;3.03;2.70;;;;;;;;;;5091611;28;20205;-56
2022/04/12 06:28:29;;;;;;;2.30;2.03;;;6.40;99.90;;;;;;5102455;28;20460;-54
2022/04/12 06:30:57;;;;;;;3.67;2.73;;;5.90;99.90;;;;;;5112076;28;20181;-51
2022/04/12 06:33:23;;;;;;;5.77;2.70;;;6.40;99.90;;;;;;5111677;28;20546;-52
2022/04/12 06:35:49;;;;;;;4.17;2.60;;;6.30;99.90;;;;;;5112132;28;20181;-56
2022/04/12 06:38:14;;;;;;;2.80;2.60;;;6.10;99.90;;;;;;5111944;28;20203;-51
2022/04/12 06:40:41;;;;;;;4.50;3.27;;;;;;;;;;5115995;28;20177;-51
2022/04/12 06:43:07;;;;;;;3.87;3.23;;;6.40;99.90;;;;;;5114381;28;20238;-51
2022/04/12 06:45:32;;;;;;;2.90;2.53;;;6.50;99.90;;;;;;5108195;28;20181;-51
2022/04/12 06:47:59;;;;;;;2.80;2.60;;;6.90;99.90;;;;;;5109618;28;20200;-54
2022/04/12 06:50:26;;;;;;;3.07;2.47;;;7.00;99.90;;;;;;5105530;28;20201;-53
2022/04/12 06:52:52;;;;;;;4.33;2.47;;;7.40;99.90;;;;;;5103056;28;20177;-52
2022/04/12 06:55:19;;;;;;;2.80;2.50;;;;;;;;;;5115791;28;20506;-55
2022/04/12 06:57:45;;;;;;;3.30;2.43;;;;;;;;;;5115594;28;20199;-57
2022/04/12 07:00:11;;;;;;;2.47;2.23;;;6.90;99.90;;;;;;5097007;28;20177;-54
2022/04/12 07:02:37;;;;;;;3.40;2.43;;;7.10;99.90;;;;;;5114901;28;20230;-53
2022/04/12 07:05:07;;;;;;;2.33;2.13;;;7.60;99.90;;;;;;5115425;28;20189;-53
2022/04/12 07:07:34;;;;;;;2.90;2.13;;;7.70;99.90;;;;;;5115220;28;20205;-51
2022/04/12 07:10:00;;;;;;;3.17;2.20;;;7.80;99.90;;;;;;5115375;28;20161;-52
2022/04/12 07:12:25;;;;;;;2.87;2.53;;;7.70;99.90;;;;;;5114918;28;20302;-54
2022/04/12 07:14:51;;;;;;;2.50;2.30;;;8.10;99.90;;;;;;5115402;28;20209;-54
2022/04/12 07:17:17;;;;;;;3.17;2.50;;;8.60;99.90;;;;;;5115121;28;20193;-53
2022/04/12 07:19:43;;;;;;;2.53;2.07;;;8.20;99.90;;;;;;5115254;28;20173;-53
2022/04/12 07:22:09;;;;;;;3.47;2.27;;;8.40;99.90;;;;;;5115045;28;20649;-57
2022/04/12 07:24:35;;;;;;;2.60;2.40;;;9.00;99.90;;;;;;5114907;28;20173;-53
2022/04/12 07:27:01;;;;;;;3.83;2.33;;;8.80;99.90;;;;;;5096743;28;20213;-53
2022/04/12 07:29:27;;;;;;;2.20;2.00;;;;;;;;;;5114973;28;20534;-54
2022/04/12 07:31:53;;;;;;;2.60;2.20;;;9.20;99.90;;;;;;5114617;28;20173;-56
2022/04/12 07:34:18;;;;;;;2.67;2.20;;;9.20;99.90;;;;;;5114632;28;20238;-52
2022/04/12 07:36:47;;;;;;;2.67;2.20;;;9.50;99.90;;;;;;5114828;28;20264;-52
2022/04/12 07:39:14;;;;;;;2.60;2.40;;;9.60;99.90;;;;;;5114846;28;20243;-54
2022/04/12 07:41:40;;;;;;;3.10;2.67;;;9.90;99.90;;;;;;5114698;28;20165;-56
2022/04/12 07:44:06;;;;;;;3.60;3.30;;;9.80;99.90;;;;;;5114383;28;20230;-57
2022/04/12 07:46:31;;;;;;;4.57;3.50;;;9.90;99.90;;;;;;5114471;28;20768;-52
2022/04/12 07:48:57;;;;;;;4.60;3.40;;;9.60;99.90;;;;;;5114747;28;20172;-55
2022/04/12 07:51:22;;;;;;;4.43;3.13;;;9.40;99.90;;;;;;5114399;28;20658;-53
2022/04/12 07:53:48;;;;;;;3.47;2.90;;;9.80;99.90;;;;;;5114171;28;20206;-54
2022/04/12 07:56:13;;;;;;;3.70;3.10;;;10.00;99.90;;;;;;5114373;28;20180;-55
2022/04/12 07:58:39;;;;;;;4.80;3.17;;;9.90;99.90;;;;;;5114884;28;20173;-52
2022/04/12 08:01:05;;;;;;;4.27;3.37;;;10.20;99.90;;;;;;5114275;28;20173;-56
2022/04/12 08:03:31;;;;;;;3.33;3.00;;;;;;;;;;5096073;28;20173;-57
2022/04/12 08:05:56;;;;;;;3.60;2.70;;;10.70;99.90;;;;;;5114308;28;20267;-53
2022/04/12 08:08:22;;;;;;;3.30;2.17;;;11.20;99.90;;;;;;5114157;28;20579;-56
2022/04/12 08:10:47;;;;;;;3.20;1.83;;;11.20;97.10;;;;;;5114152;28;20637;-53
2022/04/12 08:13:13;;;;;;;2.37;2.17;;;;;;;;;;5113772;28;20162;-57
2022/04/12 08:15:39;;;;;;;3.27;2.10;;;11.70;96.80;;;;;;5113925;28;20176;-56
2022/04/12 08:18:05;;;;;;;2.50;2.13;;;12.20;97.30;;;;;;5114034;28;20193;-55
2022/04/12 08:20:31;;;;;;;2.30;2.10;;;;;;;;;;5113950;28;20177;-56
2022/04/12 08:22:57;;;;;;;2.23;1.90;;;11.90;95.60;;;;;;5113637;28;20180;-56
2022/04/12 08:25:23;;;;;;;4.20;2.33;;;12.30;95.20;;;;;;5113903;28;20165;-55
2022/04/12 08:27:49;;;;;;;2.43;2.00;;;12.60;95.40;;;;;;5095454;28;20257;-54
2022/04/12 08:30:15;;;;;;;2.57;2.00;;;12.60;94.60;;;;;;5113723;28;20168;-55
2022/04/12 08:32:41;;;;;;;3.27;2.33;;;;;;;;;;5113424;28;20173;-56
2022/04/12 08:35:07;;;;;;;2.37;1.90;;;13.10;91.50;;;;;;5113726;28;20209;-58
2022/04/12 08:37:33;;;;;;;2.27;2.07;;;13.30;93.90;;;;;;5113788;28;20264;-58
2022/04/12 08:39:59;;;;;;;2.20;2.00;;;;;;;;;;5113589;28;20744;-59
2022/04/12 08:42:25;;;;;;;3.00;2.00;;;13.30;93.20;;;;;;5113194;28;20189;-57
2022/04/12 08:44:51;;;;;;;4.17;2.33;;;13.50;93.20;;;;;;5113254;28;20556;-55
2022/04/12 08:47:19;;;;;;;3.07;2.20;;;14.10;93.70;;;;;;5113180;28;20206;-53
2022/04/12 08:49:45;;;;;;;3.73;2.40;;;13.50;92.90;;;;;;5113394;28;20175;-55
2022/04/12 08:52:13;;;;;;;3.00;2.17;;;13.80;91.30;;;;;;5113187;28;20180;-54
2022/04/12 08:54:44;;;;;;;2.13;1.93;;;14.40;92.50;;;;;;5113240;28;20182;-56
2022/04/12 08:57:11;;;;;;;3.20;2.10;;;14.60;90.70;;;;;;5113222;28;20659;-54
2022/04/12 08:59:37;;;;;;;2.33;1.93;;;14.90;91.30;;;;;;5113673;28;20624;-56
2022/04/12 09:02:07;;;;;;;2.37;1.70;;;14.70;92.50;;;;;;5112528;28;20225;-57
2022/04/12 09:04:33;;;;;;;3.33;2.13;;;14.70;92.50;;;;;;5113014;28;20714;-55
2022/04/12 09:07:00;;;;;;;3.13;2.00;;;15.30;91.50;;;;;;5112874;28;20215;-56
2022/04/12 09:09:30;;;;;;;4.27;1.87;;;15.30;86.50;;;;;;5113079;28;20546;-56
2022/04/12 09:12:08;;;;;;;3.47;1.80;;;15.00;89.40;;;;;;5113099;28;20181;-51
2022/04/12 09:14:37;;;;;;;1.80;1.40;;;15.50;84.90;;;;;;5112817;28;20176;-51
2022/04/12 09:17:04;;;;;;;2.83;1.63;;;15.10;80.90;;;;;;5112829;28;20188;-55
2022/04/12 09:19:40;;;;;;;1.67;1.50;;;14.50;81.40;;;;;;5112913;28;20173;-53
2022/04/12 09:22:26;;;;;;;3.20;1.40;;;14.90;77.20;;;;;;5112579;28;20173;-55
2022/04/12 09:24:56;;;;;;;2.10;1.50;;;15.30;83.00;;;;;;5112911;28;20212;-53
2022/04/12 09:27:27;;;;;;;1.73;1.13;;;15.40;78.60;;;;;;5112733;28;20217;-56
2022/04/12 09:30:11;;;;;;;1.43;1.07;;;15.60;80.10;;;;;;5112757;28;20177;-54
2022/04/12 09:32:39;;;;;;;2.83;1.30;;;15.40;72.70;;;;;;5112236;28;20191;-55
2022/04/12 09:35:05;;;;;;;2.63;1.20;;;15.90;69.90;;;;;;5112777;28;20173;-58
2022/04/12 09:37:33;;;;;;;1.40;1.13;;;16.00;79.30;;;;;;5112376;28;20201;-53
2022/04/12 09:39:59;;;;;;;1.63;1.20;;;;;;;;;;5112712;28;20519;-54
2022/04/12 09:42:45;;;;;;;2.10;1.13;;;15.80;69.20;;;;;;5112087;28;20177;-57
2022/04/12 09:45:22;;;;;;;0.77;0.77;;;16.00;67.70;;;;;;5112397;28;20217;-55
2022/04/12 09:47:49;;;;;;;3.03;1.80;;;16.40;72.50;;;;;;5112404;28;20275;-51
2022/04/12 09:50:15;;;;;;;1.93;0.80;;;15.90;67.70;;;;;;5112497;28;20252;-54
2022/04/12 09:52:57;;;;;;;1.57;0.83;;;15.70;68.40;;;;;;5112087;28;20200;-55
2022/04/12 09:55:36;;;;;;;1.13;0.87;;;15.80;68.90;;;;;;5112497;28;20416;-53
2022/04/12 09:58:04;;;;;;;5.57;4.97;;;16.40;63.70;;;;;;5112177;28;20263;-55
2022/04/12 10:00:30;;;;;;;1.17;1.07;;;16.30;64.40;;;;;;5112326;28;20162;-55
2022/04/12 10:02:58;;;;;;;1.03;0.90;;;16.60;62.60;;;;;;5111842;28;20173;-52
2022/04/12 10:05:25;;;;;;;0.80;0.80;;;14.80;57.90;;;;;;5112290;28;20261;-54
2022/04/12 10:07:51;;;;;;;2.97;1.10;;;17.20;60.60;;;;;;5112060;28;20255;-54
2022/04/12 10:10:19;;;;;;;1.03;0.80;;;17.00;58.50;;;;;;5112109;28;20191;-55
2022/04/12 10:12:46;;;;;;;0.60;0.60;;;17.50;58.50;;;;;;5111915;28;20191;-55
2022/04/12 10:15:12;;;;;;;1.27;1.17;;;17.60;57.40;;;;;;5115768;28;20172;-54
2022/04/12 10:17:39;;;;;;;2.83;1.10;;;17.80;57.20;;;;;;5116346;28;20197;-56
2022/04/12 10:20:06;;;;;;;1.13;0.80;;;;;;;;;;5116345;28;20173;-58
2022/04/12 10:22:33;;;;;;;0.80;0.80;;;18.40;58.70;;;;;;5115910;28;20565;-56
2022/04/12 10:25:00;;;;;;;1.33;0.90;;;18.60;57.70;;;;;;5116294;28;20187;-53
2022/04/12 10:27:26;;;;;;;1.63;0.80;;;;;;;;;;5107216;28;20266;-56
2022/04/12 10:30:21;;;;;;;1.13;0.83;;;18.70;52.20;;;;;;5095740;28;20173;-52
2022/04/12 10:33:16;;;;;;;1.23;0.60;;;17.90;53.90;;;;;;5095469;28;20647;-56
2022/04/12 10:35:44;;;;;;;2.00;1.00;;;18.40;56.10;;;;;;5093437;28;20686;-53
2022/04/12 10:38:18;;;;;;;0.70;0.60;;;18.20;52.60;;;;;;5095662;28;20283;-55
2022/04/12 10:40:49;;;;;;;0.80;0.80;;;18.30;47.90;;;;;;5095569;28;20302;-54
2022/04/12 10:43:21;;;;;;;1.17;0.80;;;17.90;51.60;;;;;;5095166;28;20178;-55
2022/04/12 10:45:49;;;;;;;2.10;0.67;;;18.60;52.90;;;;;;5095362;28;20174;-56
2022/04/12 10:48:23;;;;;;;1.37;0.83;;;18.90;49.90;;;;;;5095267;28;20272;-54
2022/04/12 10:50:56;;;;;;;2.27;0.90;;;18.90;52.70;;;;;;5095460;28;20193;-57
2022/04/12 10:53:37;;;;;;;1.73;1.10;;;19.10;52.40;;;;;;5095064;28;20547;-54
2022/04/12 10:56:11;;;;;;;0.77;0.77;;;19.10;54.00;;;;;;5095459;28;20564;-55
2022/04/12 10:58:37;;;;;;;1.80;0.97;;;19.60;54.20;;;;;;5095177;28;20166;-54
2022/04/12 11:01:05;;;;;;;1.93;0.80;;;19.80;52.10;;;;;;5095160;28;20174;-57
2022/04/12 11:03:43;;;;;;;0.87;0.83;;;20.20;51.90;;;;;;5094785;28;20269;-53
2022/04/12 11:06:24;;;;;;;0.83;0.83;;;20.10;46.70;;;;;;5095032;28;20316;-52
2022/04/12 11:08:53;;;;;;;2.13;1.00;;;20.30;48.50;;;;;;5095042;28;20255;-56
2022/04/12 11:11:19;;;;;;;4.10;1.08;;;20.50;47.60;;;;;;5094861;28;20174;-55
2022/04/12 11:13:44;;;;;;;0.98;0.77;;;20.80;48.60;;;;;;5094560;28;20166;-57
2022/04/12 11:16:11;;;;;;;1.50;0.80;;;20.80;45.10;;;;;;5094830;28;20234;-57
2022/04/12 11:18:50;;;;;;;1.15;0.80;;;21.10;45.90;;;;;;5094861;28;20182;-56
2022/04/12 11:21:18;;;;;;;1.33;1.00;;;20.80;46.40;;;;;;5094886;28;20191;-53
2022/04/12 11:23:54;;;;;;;0.60;0.60;;;21.10;45.40;;;;;;5094461;28;20184;-55
2022/04/12 11:26:47;;;;;;;1.00;0.90;;;21.70;44.50;;;;;;5094089;28;20194;-55
2022/04/12 11:29:18;;;;;;;1.40;0.80;;;22.20;45.80;;;;;;5094574;28;20261;-56
2022/04/12 11:31:47;;;;;;;2.70;1.10;;;22.00;43.00;;;;;;5094817;28;20303;-56
2022/04/12 11:34:13;;;;;;;1.55;1.17;;;22.30;42.30;;;;;;5094215;28;20162;-58
2022/04/12 11:36:43;;;;;;;1.27;0.73;;;22.70;43.00;;;;;;5094446;28;20188;-55
2022/04/12 11:39:08;;;;;;;0.80;0.80;;;23.20;42.60;;;;;;5094314;28;20198;-58
2022/04/12 11:41:34;;;;;;;1.60;0.90;;;23.50;44.00;;;;;;5094294;28;20248;-55
2022/04/12 11:44:04;;;;;;;1.27;0.90;;;24.20;41.50;;;;;;5093967;28;20541;-58
2022/04/12 11:46:33;;;;;;;1.73;0.90;;;25.20;41.40;;;;;;5094038;28;20210;-55
2022/04/12 11:49:17;;;;;;;0.93;0.80;;;25.40;39.60;;;;;;5094391;28;20170;-56
2022/04/12 11:51:47;;;;;;;1.00;0.73;;;26.30;36.30;;;;;;5075984;28;20216;-56
2022/04/12 11:54:24;;;;;;;1.50;1.10;;;26.90;35.40;;;;;;5093777;28;20224;-55
2022/04/12 11:57:06;;;;;;;2.10;0.93;;;27.90;34.40;;;;;;5094329;28;20547;-54
2022/04/12 11:59:38;;;;;;;0.95;0.60;;;28.70;32.10;;;;;;5094212;28;20205;-55
2022/04/12 12:02:06;;;;;;;1.83;0.80;;;29.30;32.60;;;;;;5093843;28;20170;-51
2022/04/12 12:04:33;;;;;;;1.35;0.63;;;29.30;32.60;;;;;;5075567;28;20178;-56
2022/04/12 12:07:05;;;;;;;0.68;0.68;;;30.50;30.60;;;;;;5093732;28;20541;-54
2022/04/12 12:09:31;;;;;;;2.65;0.90;;;30.80;29.30;;;;;;5093818;28;20244;-55
2022/04/12 12:11:58;;;;;;;1.10;0.75;;;30.00;28.00;;;;;;5094030;28;20166;-55
2022/04/12 12:14:27;;;;;;;0.88;0.68;;;29.90;27.90;;;;;;5093281;28;20174;-55
2022/04/12 12:17:08;;;;;;;1.38;0.98;;;30.60;28.30;;;;;;5093592;28;20239;-54
2022/04/12 12:19:38;;;;;;;1.63;1.00;;;30.90;27.90;;;;;;5093671;28;20541;-51
2022/04/12 12:22:05;;;;;;;1.30;0.77;;;31.40;28.50;;;;;;5093834;28;20177;-55
2022/04/12 12:24:34;;;;;;;1.35;0.85;;;31.80;26.60;;;;;;5093309;28;20195;-51
2022/04/12 12:27:00;;;;;;;1.33;0.60;;;31.20;24.80;;;;;;5092160;28;20641;-52
2022/04/12 12:29:26;;;;;;;0.70;0.70;;;31.20;26.30;;;;;;5093507;28;20200;-51
2022/04/12 12:31:57;;;;;;;0.60;0.60;;;31.30;25.30;;;;;;5091959;28;20546;-55
2022/04/12 12:34:27;;;;;;;2.10;0.88;;;31.40;23.70;;;;;;5092557;28;20197;-51
2022/04/12 12:36:53;;;;;;;1.15;0.88;;;31.40;25.20;;;;;;5092152;28;20198;-51
2022/04/12 12:39:19;;;;;;;2.05;0.80;;;30.60;24.50;;;;;;5093214;28;20218;-51
2022/04/12 12:41:44;;;;;;;1.83;0.90;;;29.60;23.50;;;;;;5093132;28;20666;-52
2022/04/12 12:44:10;;;;;;;1.67;1.00;;;29.20;25.60;;;;;;5091898;28;20719;-55
2022/04/12 12:46:37;;;;;;;1.60;0.93;;;29.10;24.20;;;;;;5092472;28;20217;-56
2022/04/12 12:49:16;;;;;;;0.90;0.70;;;28.80;26.10;;;;;;5092749;28;20166;-56
2022/04/12 12:51:42;;;;;;;1.90;0.90;;;29.20;25.30;;;;;;5092132;28;20165;-51
2022/04/12 12:54:12;;;;;;;1.83;1.10;;;29.20;24.10;;;;;;5092973;28;20229;-57
2022/04/12 12:56:39;;;;;;;2.35;0.70;;;29.00;25.60;;;;;;5088521;28;20205;-56
2022/04/12 12:59:26;;;;;;;2.35;1.20;;;29.00;24.90;;;;;;5076860;28;20173;-55
2022/04/12 13:01:53;;;;;;;1.42;1.00;;;29.60;25.80;;;;;;5082038;28;20185;-59
2022/04/12 13:04:31;;;;;;;0.90;0.80;;;29.80;26.60;;;;;;5093192;28;20170;-57
2022/04/12 13:07:06;;;;;;;2.55;1.02;;;29.90;25.40;;;;;;5094122;28;20205;-57
2022/04/12 13:09:38;;;;;;;3.92;0.90;;;29.70;24.50;;;;;;5092590;28;20173;-58
2022/04/12 13:12:03;;;;;;;0.80;0.80;;;29.80;24.00;;;;;;5092553;28;20177;-55